createdAt,value
2022-10-26T00:03:57.539Z,12.70
2022-10-26T00:06:27.672Z,12.70
2022-10-26T00:08:57.902Z,12.70
2022-10-26T00:11:27.552Z,12.70
2022-10-26T00:13:55.789Z,12.70
2022-10-26T00:16:27.317Z,12.70
2022-10-26T00:23:52.733Z,12.70
2022-10-26T00:26:20.923Z,12.70
2022-10-26T00:28:50.485Z,12.70
2022-10-26T00:31:18.731Z,12.70
2022-10-26T00:38:49.180Z,12.60
2022-10-26T00:46:21.300Z,12.70
2022-10-26T00:48:54.367Z,12.70
2022-10-26T00:51:32.542Z,12.70
2022-10-26T00:54:03.969Z,12.70
2022-10-26T00:56:35.388Z,12.70
2022-10-26T00:59:07.623Z,12.70
2022-10-26T01:01:41.866Z,12.70
2022-10-26T01:04:10.667Z,12.70
2022-10-26T01:06:39.491Z,12.70
2022-10-26T01:14:10.240Z,12.80
2022-10-26T01:20:19.845Z,12.80
2022-10-26T01:22:58.129Z,12.70
2022-10-26T01:25:51.472Z,12.70
2022-10-26T01:28:40.897Z,12.70
2022-10-26T01:31:16.014Z,12.60
2022-10-26T01:33:50.536Z,12.60
2022-10-26T01:39:11.999Z,12.50
2022-10-26T01:41:47.163Z,12.50
2022-10-26T01:44:21.541Z,12.60
2022-10-26T01:46:54.209Z,12.60
2022-10-26T01:49:27.024Z,12.60
2022-10-26T01:56:56.975Z,12.60
2022-10-26T01:59:56.452Z,12.60
2022-10-26T02:03:13.721Z,12.60
2022-10-26T02:05:56.022Z,12.60
2022-10-26T02:08:59.219Z,12.60
2022-10-26T02:11:39.869Z,12.60
2022-10-26T02:14:19.922Z,12.60
2022-10-26T02:16:56.172Z,12.60
2022-10-26T02:19:37.335Z,12.60
2022-10-26T02:22:16.491Z,12.60
2022-10-26T02:24:45.882Z,12.60
2022-10-26T02:27:20.904Z,12.60
2022-10-26T02:29:52.066Z,12.60
2022-10-26T02:32:23.276Z,12.50
2022-10-26T02:34:54.804Z,12.60
2022-10-26T02:37:24.971Z,12.60
2022-10-26T02:39:55.926Z,12.60
2022-10-26T02:42:25.844Z,12.60
2022-10-26T02:44:58.780Z,12.60
2022-10-26T02:47:27.486Z,12.60
2022-10-26T02:49:57.531Z,12.60
2022-10-26T02:52:36.771Z,12.60
2022-10-26T02:55:12.352Z,12.60
2022-10-26T02:57:43.364Z,12.50
2022-10-26T03:00:15.875Z,12.50
2022-10-26T03:02:48.429Z,12.50
2022-10-26T03:05:24.341Z,12.50
2022-10-26T03:10:22.315Z,12.50
2022-10-26T03:20:19.110Z,12.50
2022-10-26T03:22:48.996Z,12.50
2022-10-26T03:30:17.037Z,12.50
2022-10-26T03:32:45.196Z,12.50
2022-10-26T03:37:43.304Z,12.50
2022-10-26T03:40:12.981Z,12.40
2022-10-26T03:42:41.801Z,12.40
2022-10-26T03:45:11.591Z,12.40
2022-10-26T03:47:45.708Z,12.30
2022-10-26T03:50:16.833Z,12.40
2022-10-26T03:52:48.280Z,12.40
2022-10-26T03:57:46.727Z,12.40
2022-10-26T04:00:18.325Z,12.40
2022-10-26T04:05:17.501Z,12.40
2022-10-26T04:07:54.205Z,12.40
2022-10-26T04:10:22.935Z,12.40
2022-10-26T04:15:20.050Z,12.40
2022-10-26T04:22:47.495Z,12.30
2022-10-26T04:30:14.348Z,12.20
2022-10-26T04:40:14.421Z,12.10
2022-10-26T04:42:44.090Z,12.10
2022-10-26T04:45:13.604Z,12.10
2022-10-26T04:50:12.752Z,12.20
2022-10-26T04:57:40.093Z,12.20
2022-10-26T05:00:10.439Z,12.20
2022-10-26T05:05:09.931Z,12.20
2022-10-26T05:10:10.859Z,12.20
2022-10-26T05:12:40.399Z,12.20
2022-10-26T05:15:11.957Z,12.20
2022-10-26T05:20:13.308Z,12.20
2022-10-26T05:30:10.338Z,12.20
2022-10-26T05:35:08.095Z,12.20
2022-10-26T05:45:03.628Z,12.20
2022-10-26T06:02:38.641Z,12.20
2022-10-26T06:05:11.102Z,12.20
2022-10-26T06:07:40.065Z,12.20
2022-10-26T06:10:12.147Z,12.20
2022-10-26T06:12:41.393Z,12.20
2022-10-26T06:15:16.969Z,12.20
2022-10-26T06:18:01.630Z,12.20
2022-10-26T06:20:45.707Z,12.10
2022-10-26T06:23:38.721Z,12.10
2022-10-26T06:26:16.430Z,12.20
2022-10-26T06:28:53.900Z,12.20
2022-10-26T06:33:58.043Z,12.20
2022-10-26T06:36:28.502Z,12.30
2022-10-26T06:39:01.682Z,12.30
2022-10-26T06:44:02.392Z,12.30
2022-10-26T06:46:40.282Z,12.30
2022-10-26T06:49:19.473Z,12.40
2022-10-26T06:51:53.781Z,12.40
2022-10-26T06:54:30.169Z,12.30
2022-10-26T06:56:59.155Z,12.40
2022-10-26T06:59:38.169Z,12.40
2022-10-26T07:04:36.992Z,12.40
2022-10-26T07:12:02.700Z,12.60
2022-10-26T07:16:59.632Z,12.60
2022-10-26T07:21:59.242Z,12.70
2022-10-26T07:29:26.776Z,12.70
2022-10-26T07:36:52.799Z,12.80
2022-10-26T07:39:22.482Z,12.90
2022-10-26T07:41:50.683Z,12.90
2022-10-26T07:56:46.461Z,13.20
2022-10-26T08:11:37.841Z,13.80
2022-10-26T08:14:07.571Z,14.00
2022-10-26T08:16:35.838Z,14.10
2022-10-26T08:24:09.671Z,14.50
2022-10-26T08:29:07.899Z,15.10
2022-10-26T08:34:05.029Z,15.80
2022-10-26T08:36:33.239Z,16.00
2022-10-26T08:39:01.487Z,16.10
2022-10-26T08:41:38.117Z,16.20
2022-10-26T08:44:20.673Z,16.50
2022-10-26T08:46:55.569Z,16.90
2022-10-26T08:49:28.143Z,17.30
2022-10-26T08:52:00.980Z,17.60
2022-10-26T08:54:39.615Z,17.50
2022-10-26T08:57:20.193Z,17.30
2022-10-26T08:59:58.847Z,17.10
2022-10-26T09:04:59.085Z,16.90
2022-10-26T09:07:48.013Z,16.80
2022-10-26T09:10:31.759Z,16.70
2022-10-26T09:13:10.955Z,16.70
2022-10-26T09:15:57.880Z,16.70
2022-10-26T09:18:42.645Z,16.60
2022-10-26T09:21:27.699Z,16.60
2022-10-26T09:24:07.679Z,16.70
2022-10-26T09:26:42.425Z,16.60
2022-10-26T09:29:14.267Z,16.70
2022-10-26T09:31:48.138Z,17.00
2022-10-26T09:34:26.376Z,17.10
2022-10-26T09:36:57.017Z,17.10
2022-10-26T09:39:36.851Z,17.20
2022-10-26T09:42:16.677Z,17.20
2022-10-26T09:44:51.822Z,17.30
2022-10-26T09:47:34.665Z,17.40
2022-10-26T09:50:17.570Z,17.60
2022-10-26T09:52:45.759Z,18.10
2022-10-26T09:55:15.112Z,18.60
2022-10-26T09:57:46.639Z,18.90
2022-10-26T10:00:17.984Z,19.00
2022-10-26T10:02:52.305Z,18.90
2022-10-26T10:05:51.302Z,18.70
2022-10-26T10:08:22.818Z,18.60
2022-10-26T10:11:00.902Z,18.40
2022-10-26T10:13:32.343Z,18.30
2022-10-26T10:16:08.924Z,18.30
2022-10-26T10:18:39.989Z,18.20
2022-10-26T10:21:10.129Z,18.20
2022-10-26T10:23:48.780Z,18.20
2022-10-26T10:28:59.443Z,18.40
2022-10-26T10:31:32.875Z,19.00
2022-10-26T10:34:16.123Z,19.60
2022-10-26T10:39:40.607Z,21.00
2022-10-26T10:42:19.320Z,21.30
2022-10-26T10:44:51.967Z,21.50
2022-10-26T10:47:25.119Z,21.50
2022-10-26T10:49:58.461Z,21.60
2022-10-26T10:52:29.725Z,21.60
2022-10-26T10:55:19.146Z,21.70
2022-10-26T10:58:07.083Z,21.90
2022-10-26T11:00:38.780Z,22.40
2022-10-26T11:03:26.222Z,22.40
2022-10-26T11:06:09.571Z,22.10
2022-10-26T11:08:43.984Z,21.80
2022-10-26T11:11:16.606Z,21.50
2022-10-26T11:13:53.261Z,21.30
2022-10-26T11:16:27.409Z,21.20
2022-10-26T11:19:03.021Z,21.10
2022-10-26T11:21:37.782Z,20.90
2022-10-26T11:24:16.185Z,20.80
2022-10-26T11:26:52.687Z,20.70
2022-10-26T11:29:36.624Z,20.60
2022-10-26T11:32:16.424Z,20.40
2022-10-26T11:34:54.946Z,20.40
2022-10-26T11:37:33.483Z,20.30
2022-10-26T11:40:17.277Z,20.20
2022-10-26T11:42:51.588Z,20.10
2022-10-26T11:45:27.119Z,20.10
2022-10-26T11:48:02.824Z,20.00
2022-10-26T11:50:38.630Z,20.00
2022-10-26T11:53:15.984Z,20.00
2022-10-26T11:55:48.685Z,20.00
2022-10-26T11:58:18.021Z,19.90
2022-10-26T12:00:52.653Z,19.90
2022-10-26T12:03:24.480Z,19.90
2022-10-26T12:05:53.945Z,20.00
2022-10-26T12:08:28.687Z,20.00
2022-10-26T12:13:46.676Z,20.10
2022-10-26T12:16:22.809Z,20.10
2022-10-26T12:18:56.969Z,20.20
2022-10-26T12:21:29.400Z,20.20
2022-10-26T12:24:01.585Z,20.30
2022-10-26T12:26:40.854Z,20.40
2022-10-26T12:29:36.741Z,20.50
2022-10-26T12:32:21.595Z,20.60
2022-10-26T12:35:02.577Z,20.80
2022-10-26T12:37:37.543Z,21.00
2022-10-26T12:40:46.832Z,21.40
2022-10-26T12:43:36.689Z,22.00
2022-10-26T12:46:45.493Z,22.60
2022-10-26T12:50:10.609Z,23.20
2022-10-26T12:52:54.769Z,23.70
2022-10-26T12:56:05.289Z,24.20
2022-10-26T12:59:21.187Z,24.50
2022-10-26T13:02:19.188Z,24.70
2022-10-26T13:05:34.526Z,24.60
2022-10-26T13:08:03.956Z,24.60
2022-10-26T13:10:32.289Z,24.60
2022-10-26T13:13:05.529Z,24.60
2022-10-26T13:15:39.651Z,24.60
2022-10-26T13:18:17.937Z,24.60
2022-10-26T13:21:03.397Z,24.50
2022-10-26T13:23:35.471Z,24.30
2022-10-26T13:26:11.944Z,24.10
2022-10-26T13:28:51.667Z,24.00
2022-10-26T13:31:59.343Z,24.00
2022-10-26T13:34:31.961Z,24.20
2022-10-26T13:37:13.693Z,24.30
2022-10-26T13:39:45.179Z,24.30
2022-10-26T13:42:17.957Z,24.30
2022-10-26T13:44:54.520Z,24.30
2022-10-26T13:47:29.555Z,24.20
2022-10-26T13:50:06.611Z,24.20
2022-10-26T13:52:39.550Z,24.20
2022-10-26T13:55:18.001Z,24.10
2022-10-26T13:57:59.740Z,24.00
2022-10-26T14:00:29.567Z,23.90
2022-10-26T14:02:57.784Z,23.80
2022-10-26T14:05:26.261Z,23.70
2022-10-26T14:07:57.717Z,23.50
2022-10-26T14:10:31.147Z,23.40
2022-10-26T14:13:00.281Z,23.20
2022-10-26T14:15:33.016Z,23.00
2022-10-26T14:18:04.388Z,22.90
2022-10-26T14:20:33.776Z,22.70
2022-10-26T14:25:42.057Z,22.50
2022-10-26T14:28:26.148Z,22.30
2022-10-26T14:30:57.186Z,22.20
2022-10-26T14:33:29.782Z,22.10
2022-10-26T14:35:58.631Z,22.10
2022-10-26T14:38:31.693Z,22.00
2022-10-26T14:41:00.156Z,21.80
2022-10-26T14:43:28.873Z,21.80
2022-10-26T14:45:58.683Z,21.70
2022-10-26T14:48:31.973Z,21.70
2022-10-26T14:51:08.325Z,21.70
2022-10-26T14:53:40.535Z,21.60
2022-10-26T14:56:24.326Z,21.60
2022-10-26T14:58:54.155Z,21.60
2022-10-26T15:01:36.789Z,21.50
2022-10-26T15:04:07.977Z,21.40
2022-10-26T15:06:44.426Z,21.30
2022-10-26T15:09:38.485Z,21.20
2022-10-26T15:12:09.426Z,21.10
2022-10-26T15:17:07.820Z,20.90
2022-10-26T15:19:39.370Z,20.80
2022-10-26T15:24:54.373Z,20.70
2022-10-26T15:27:24.758Z,20.60
2022-10-26T15:30:09.195Z,20.50
2022-10-26T15:32:39.108Z,20.40
2022-10-26T15:35:31.558Z,20.40
2022-10-26T15:38:01.566Z,20.30
2022-10-26T15:40:32.251Z,20.20
2022-10-26T15:43:02.238Z,20.20
2022-10-26T15:45:35.037Z,20.10
2022-10-26T15:48:20.767Z,20.00
2022-10-26T15:53:22.204Z,19.80
2022-10-26T15:55:52.806Z,19.80
2022-10-26T16:03:22.986Z,19.50
2022-10-26T16:05:57.694Z,19.40
2022-10-26T16:08:27.707Z,19.40
2022-10-26T16:15:54.636Z,19.10
2022-10-26T16:18:24.154Z,19.00
2022-10-26T16:28:18.272Z,18.70
2022-10-26T16:35:44.900Z,18.50
2022-10-26T16:38:13.097Z,18.40
2022-10-26T16:40:43.175Z,18.40
2022-10-26T16:45:42.174Z,18.20
2022-10-26T16:48:14.865Z,18.20
2022-10-26T16:50:44.617Z,18.10
2022-10-26T17:00:43.377Z,17.90
2022-10-26T17:03:11.575Z,17.80
2022-10-26T17:05:39.779Z,17.80
2022-10-26T17:08:10.059Z,17.70
2022-10-26T17:23:01.120Z,17.30
2022-10-26T17:25:31.106Z,17.20
2022-10-26T17:27:59.521Z,17.20
2022-10-26T17:33:02.376Z,17.10
2022-10-26T17:38:00.066Z,17.00
2022-10-26T17:40:29.963Z,17.00
2022-10-26T17:52:53.473Z,16.90
2022-10-26T17:57:51.842Z,16.90
2022-10-26T18:13:04.865Z,16.50
2022-10-26T18:27:59.486Z,16.20
2022-10-26T18:30:29.097Z,16.20
2022-10-26T18:35:25.937Z,16.10
2022-10-26T18:40:22.841Z,16.00
2022-10-26T18:45:19.655Z,16.00
2022-10-26T18:47:49.571Z,16.00
2022-10-26T18:52:47.107Z,16.00
2022-10-26T18:55:15.364Z,15.90
2022-10-26T18:57:43.543Z,15.90
2022-10-26T19:00:14.278Z,15.90
2022-10-26T19:05:12.523Z,15.80
2022-10-26T19:10:10.852Z,15.70
2022-10-26T19:15:08.828Z,15.70
2022-10-26T19:22:36.665Z,15.50
2022-10-26T19:25:05.217Z,15.40
2022-10-26T19:37:28.614Z,15.20
2022-10-26T19:39:58.321Z,15.20
2022-10-26T19:42:26.592Z,15.10
2022-10-26T19:57:18.957Z,15.00
2022-10-26T20:12:12.602Z,14.60
2022-10-26T20:14:42.273Z,14.60
2022-10-26T20:27:04.949Z,14.30
2022-10-26T20:29:33.217Z,14.20
2022-10-26T20:32:02.758Z,14.20
2022-10-26T20:39:28.892Z,14.10
2022-10-26T20:41:57.996Z,14.10
2022-10-26T20:44:32.128Z,14.10
2022-10-26T20:49:31.777Z,13.90
2022-10-26T20:52:22.321Z,14.00
2022-10-26T20:55:00.956Z,14.00
2022-10-26T20:57:32.664Z,14.00
2022-10-26T21:00:05.739Z,13.90
2022-10-26T21:02:35.725Z,13.90
2022-10-26T21:05:04.800Z,13.90
2022-10-26T21:14:58.550Z,13.80
2022-10-26T21:17:26.740Z,13.90
2022-10-26T21:19:56.395Z,13.90
2022-10-26T21:24:53.244Z,13.80
2022-10-26T21:29:50.170Z,13.70
2022-10-26T21:37:16.744Z,13.60
2022-10-26T21:47:11.097Z,13.50
2022-10-26T21:54:43.025Z,13.50
2022-10-26T22:04:38.558Z,13.30
2022-10-26T22:12:25.385Z,13.20
2022-10-26T22:19:50.643Z,13.20
2022-10-26T22:29:45.802Z,13.20
2022-10-26T22:37:11.040Z,13.10
2022-10-26T22:47:06.511Z,12.90
2022-10-26T22:57:00.223Z,12.90
2022-10-26T23:04:27.071Z,12.90
2022-10-26T23:21:47.816Z,12.80
2022-10-26T23:26:44.475Z,12.70
2022-10-26T23:34:10.514Z,12.50
2022-10-26T23:39:08.541Z,12.50
2022-10-26T23:56:29.790Z,12.30
